createdAt,value
2019-04-13T00:01:37.527Z,-0.60
2019-04-13T00:04:04.442Z,-0.61
2019-04-13T00:06:38.795Z,-0.57
2019-04-13T00:09:07.699Z,-0.56
2019-04-13T00:11:54.530Z,-0.48
2019-04-13T00:14:21.559Z,-0.31
2019-04-13T00:16:48.314Z,-0.31
2019-04-13T00:19:14.925Z,-0.05
2019-04-13T00:21:42.209Z,0.05
2019-04-13T00:24:09.351Z,-0.03
2019-04-13T00:26:36.709Z,0.04
2019-04-13T00:29:04.936Z,0.07
2019-04-13T00:31:33.297Z,0.13
2019-04-13T00:34:00.543Z,0.17
2019-04-13T00:36:27.411Z,0.16
2019-04-13T00:38:55.090Z,0.14
2019-04-13T00:41:21.738Z,0.16
2019-04-13T00:43:48.326Z,0.30
2019-04-13T00:46:16.608Z,0.24
2019-04-13T00:48:43.206Z,0.29
2019-04-13T00:51:10.103Z,0.25
2019-04-13T00:53:37.484Z,0.33
2019-04-13T00:56:04.073Z,0.36
2019-04-13T00:58:30.762Z,0.32
2019-04-13T01:00:58.744Z,0.29
2019-04-13T01:03:25.857Z,0.42
2019-04-13T01:05:53.489Z,0.33
2019-04-13T01:08:20.255Z,0.27
2019-04-13T01:10:46.959Z,0.32
2019-04-13T01:13:13.649Z,0.29
2019-04-13T01:15:41.107Z,0.31
2019-04-13T01:18:07.680Z,0.34
2019-04-13T01:20:34.359Z,0.42
2019-04-13T01:23:00.940Z,0.36
2019-04-13T01:25:27.626Z,0.43
2019-04-13T01:27:54.255Z,0.27
2019-04-13T01:30:21.077Z,0.42
2019-04-13T01:32:49.102Z,0.39
2019-04-13T01:35:15.695Z,0.41
2019-04-13T01:37:43.432Z,0.43
2019-04-13T01:40:10.932Z,0.47
2019-04-13T01:42:37.501Z,0.60
2019-04-13T01:45:05.497Z,0.48
2019-04-13T01:47:32.115Z,0.42
2019-04-13T01:49:58.830Z,0.59
2019-04-13T01:52:25.562Z,0.57
2019-04-13T01:54:53.019Z,0.50
2019-04-13T01:57:19.998Z,0.46
2019-04-13T01:59:47.032Z,0.46
2019-04-13T02:02:31.237Z,0.48
2019-04-13T02:05:18.293Z,0.56
2019-04-13T02:07:51.857Z,0.38
2019-04-13T02:10:24.855Z,0.42
2019-04-13T02:12:52.506Z,0.36
2019-04-13T02:15:19.086Z,0.41
2019-04-13T02:17:45.950Z,0.53
2019-04-13T02:20:14.281Z,0.58
2019-04-13T02:22:40.909Z,0.60
2019-04-13T02:25:07.756Z,0.47
2019-04-13T02:27:35.609Z,0.51
2019-04-13T02:30:04.458Z,0.47
2019-04-13T02:32:31.221Z,0.40
2019-04-13T02:34:57.885Z,0.48
2019-04-13T02:37:26.200Z,0.52
2019-04-13T02:39:52.896Z,0.51
2019-04-13T02:42:20.067Z,0.42
2019-04-13T02:44:46.803Z,0.34
2019-04-13T02:47:14.430Z,0.29
2019-04-13T02:49:41.653Z,0.29
2019-04-13T02:52:08.870Z,0.29
2019-04-13T02:54:35.667Z,0.14
2019-04-13T02:57:02.352Z,0.13
2019-04-13T02:59:29.386Z,0.19
2019-04-13T03:01:58.162Z,0.15
2019-04-13T03:04:25.551Z,0.10
2019-04-13T03:06:53.169Z,0.22
2019-04-13T03:09:19.839Z,0.23
2019-04-13T03:11:46.785Z,0.21
2019-04-13T03:14:13.614Z,0.23
2019-04-13T03:17:14.871Z,0.25
2019-04-13T03:19:45.700Z,0.24
2019-04-13T03:22:12.294Z,0.22
2019-04-13T03:24:40.133Z,0.27
2019-04-13T03:27:06.776Z,0.32
2019-04-13T03:29:33.456Z,0.29
2019-04-13T03:32:00.393Z,0.25
2019-04-13T03:34:27.920Z,0.22
2019-04-13T03:36:54.629Z,0.17
2019-04-13T03:39:21.210Z,0.19
2019-04-13T03:41:48.005Z,0.17
2019-04-13T03:44:14.580Z,0.22
2019-04-13T03:46:41.356Z,0.19
2019-04-13T03:49:08.412Z,0.08
2019-04-13T03:51:35.943Z,0.18
2019-04-13T03:54:02.968Z,0.16
2019-04-13T03:56:29.953Z,0.31
2019-04-13T03:58:56.559Z,0.17
2019-04-13T04:01:23.258Z,0.24
2019-04-13T04:03:49.931Z,0.25
2019-04-13T04:06:16.947Z,0.24
2019-04-13T04:08:43.578Z,0.36
2019-04-13T04:11:10.476Z,0.37
2019-04-13T04:13:37.097Z,0.34
2019-04-13T04:16:04.220Z,0.32
2019-04-13T04:18:32.560Z,0.35
2019-04-13T04:20:59.633Z,0.35
2019-04-13T04:23:26.427Z,0.30
2019-04-13T04:25:53.079Z,0.35
2019-04-13T04:28:20.895Z,0.45
2019-04-13T04:30:47.887Z,0.34
2019-04-13T04:33:14.977Z,0.32
2019-04-13T04:35:42.060Z,0.38
2019-04-13T04:38:09.364Z,0.37
2019-04-13T04:40:35.947Z,0.22
2019-04-13T04:43:02.839Z,0.31
2019-04-13T04:45:29.589Z,0.33
2019-04-13T04:47:56.485Z,0.27
2019-04-13T04:50:23.219Z,0.31
2019-04-13T04:52:50.542Z,0.37
2019-04-13T04:55:17.278Z,0.25
2019-04-13T04:57:44.603Z,0.26
2019-04-13T05:00:11.429Z,0.30
2019-04-13T05:02:38.174Z,0.43
2019-04-13T05:05:06.730Z,0.40
2019-04-13T05:07:35.936Z,0.44
2019-04-13T05:10:03.968Z,0.64
2019-04-13T05:12:30.793Z,0.53
2019-04-13T05:14:57.838Z,0.67
2019-04-13T05:17:24.533Z,0.61
2019-04-13T05:19:52.376Z,0.56
2019-04-13T05:22:26.036Z,0.63
2019-04-13T05:24:47.945Z,0.55
2019-04-13T05:27:15.576Z,0.49
2019-04-13T05:29:43.416Z,0.67
2019-04-13T05:32:10.669Z,0.48
2019-04-13T05:34:37.530Z,0.42
2019-04-13T05:37:04.143Z,0.74
2019-04-13T05:39:31.026Z,0.76
2019-04-13T05:41:59.308Z,0.78
2019-04-13T05:44:25.981Z,0.90
2019-04-13T05:46:53.959Z,0.83
2019-04-13T05:49:20.578Z,0.71
2019-04-13T05:51:48.019Z,0.79
2019-04-13T05:54:14.635Z,0.71
2019-04-13T05:56:41.371Z,0.70
2019-04-13T05:59:08.606Z,0.78
2019-04-13T06:01:35.491Z,0.84
2019-04-13T06:04:02.277Z,0.70
2019-04-13T06:06:29.555Z,0.92
2019-04-13T06:08:56.211Z,0.91
2019-04-13T06:11:23.162Z,1.14
2019-04-13T06:13:50.434Z,0.90
2019-04-13T06:16:17.069Z,0.84
2019-04-13T06:18:43.685Z,0.87
2019-04-13T06:21:10.778Z,0.79
2019-04-13T06:23:37.815Z,0.80
2019-04-13T06:26:04.738Z,0.87
2019-04-13T06:28:31.553Z,0.91
2019-04-13T06:31:17.247Z,0.97
2019-04-13T06:33:50.951Z,1.28
2019-04-13T06:36:18.690Z,1.37
2019-04-13T06:38:45.606Z,1.78
2019-04-13T06:41:12.565Z,2.27
2019-04-13T06:43:39.728Z,2.38
2019-04-13T06:46:06.783Z,2.76
2019-04-13T06:48:34.599Z,2.24
2019-04-13T06:51:02.576Z,2.33
2019-04-13T06:53:29.871Z,2.57
2019-04-13T06:55:56.741Z,2.91
2019-04-13T06:58:27.012Z,3.01
2019-04-13T07:00:57.250Z,2.79
2019-04-13T07:03:24.452Z,3.89
2019-04-13T07:05:51.346Z,5.29
2019-04-13T07:08:38.397Z,5.42
2019-04-13T07:11:30.666Z,3.70
2019-04-13T07:14:00.213Z,2.49
2019-04-13T07:16:43.053Z,2.44
2019-04-13T07:19:07.933Z,2.50
2019-04-13T07:21:34.513Z,2.43
2019-04-13T07:24:01.178Z,2.42
2019-04-13T07:26:29.124Z,2.59
2019-04-13T07:28:55.713Z,2.96
2019-04-13T07:31:23.645Z,3.77
2019-04-13T07:33:51.323Z,4.30
2019-04-13T07:36:18.204Z,3.47
2019-04-13T07:38:47.582Z,2.70
2019-04-13T07:41:14.805Z,2.70
2019-04-13T07:43:45.691Z,2.45
2019-04-13T07:46:32.484Z,2.32
2019-04-13T07:49:13.783Z,2.46
2019-04-13T07:52:02.378Z,4.06
2019-04-13T07:54:29.867Z,5.24
2019-04-13T07:56:56.672Z,4.89
2019-04-13T07:59:23.266Z,4.38
2019-04-13T08:01:56.683Z,3.98
2019-04-13T08:04:19.064Z,3.50
2019-04-13T08:06:45.943Z,3.45
2019-04-13T08:09:12.740Z,3.35
2019-04-13T08:11:39.316Z,3.05
2019-04-13T08:14:20.337Z,3.34
2019-04-13T08:17:15.403Z,3.92
2019-04-13T08:19:44.528Z,4.35
2019-04-13T08:22:12.185Z,3.93
2019-04-13T08:24:38.966Z,3.84
2019-04-13T08:27:07.871Z,3.63
2019-04-13T08:29:34.557Z,3.24
2019-04-13T08:32:02.529Z,3.15
2019-04-13T08:34:29.517Z,2.90
2019-04-13T08:36:58.010Z,2.66
2019-04-13T08:39:26.890Z,2.71
2019-04-13T08:41:53.672Z,2.51
2019-04-13T08:44:20.669Z,2.47
2019-04-13T08:46:47.643Z,2.90
2019-04-13T08:49:14.243Z,3.27
2019-04-13T08:51:40.984Z,3.37
2019-04-13T08:54:07.801Z,3.56
2019-04-13T08:56:34.374Z,4.42
2019-04-13T08:59:02.088Z,5.06
2019-04-13T09:01:29.705Z,4.88
2019-04-13T09:03:56.572Z,5.92
2019-04-13T09:06:23.452Z,6.70
2019-04-13T09:08:50.355Z,7.90
2019-04-13T09:11:19.983Z,6.92
2019-04-13T09:13:45.698Z,7.95
2019-04-13T09:16:12.809Z,7.36
2019-04-13T09:19:03.838Z,6.83
2019-04-13T09:21:32.042Z,6.29
2019-04-13T09:23:58.775Z,5.16
2019-04-13T09:26:25.356Z,4.99
2019-04-13T09:28:52.633Z,5.10
2019-04-13T09:31:19.270Z,5.75
2019-04-13T09:33:46.833Z,4.65
2019-04-13T09:36:14.144Z,4.65
2019-04-13T09:38:42.867Z,4.38
2019-04-13T09:41:10.071Z,4.84
2019-04-13T09:43:45.552Z,4.27
2019-04-13T09:46:12.298Z,4.30
2019-04-13T09:48:41.793Z,4.35
2019-04-13T09:51:08.795Z,5.12
2019-04-13T09:53:35.483Z,5.43
2019-04-13T09:56:02.689Z,4.90
2019-04-13T09:58:29.683Z,5.17
2019-04-13T10:00:56.539Z,4.98
2019-04-13T10:03:23.299Z,5.00
2019-04-13T10:05:50.165Z,5.14
2019-04-13T10:08:20.237Z,4.45
2019-04-13T10:10:46.777Z,4.09
2019-04-13T10:13:27.589Z,4.67
2019-04-13T10:16:12.490Z,4.59
2019-04-13T10:18:43.453Z,4.41
2019-04-13T10:21:13.139Z,3.90
2019-04-13T10:23:39.464Z,3.93
2019-04-13T10:26:06.776Z,3.74
2019-04-13T10:28:36.119Z,3.67
2019-04-13T10:31:02.360Z,3.64
2019-04-13T10:33:29.279Z,3.41
2019-04-13T10:35:56.395Z,3.15
2019-04-13T10:38:25.374Z,2.98
2019-04-13T10:40:52.614Z,2.73
2019-04-13T10:43:20.411Z,2.09
2019-04-13T10:46:12.329Z,1.75
2019-04-13T10:48:44.915Z,1.62
2019-04-13T10:51:26.395Z,1.07
2019-04-13T10:53:53.240Z,2.06
2019-04-13T10:56:20.744Z,2.92
2019-04-13T10:58:47.483Z,2.92
2019-04-13T11:01:14.878Z,2.76
2019-04-13T11:03:41.543Z,3.06
2019-04-13T11:06:08.898Z,3.94
2019-04-13T11:08:35.612Z,6.09
2019-04-13T11:11:02.354Z,6.74
2019-04-13T11:13:29.214Z,6.75
2019-04-13T11:15:56.283Z,8.12
2019-04-13T11:18:23.041Z,10.84
2019-04-13T11:20:49.856Z,13.34
2019-04-13T11:23:17.129Z,14.65
2019-04-13T11:25:44.103Z,14.56
2019-04-13T11:28:11.026Z,13.77
2019-04-13T11:30:38.097Z,15.47
2019-04-13T11:33:04.984Z,16.98
2019-04-13T11:35:35.466Z,16.84
2019-04-13T11:38:00.181Z,14.65
2019-04-13T11:40:26.849Z,14.43
2019-04-13T11:43:11.882Z,14.83
2019-04-13T11:45:58.594Z,15.75
2019-04-13T11:48:51.509Z,14.60
2019-04-13T11:51:22.912Z,11.15
2019-04-13T11:53:51.488Z,9.09
2019-04-13T11:56:18.699Z,8.19
2019-04-13T11:58:45.494Z,8.66
2019-04-13T12:01:41.345Z,9.53
2019-04-13T12:04:21.265Z,8.59
2019-04-13T12:07:13.697Z,7.40
2019-04-13T12:09:58.886Z,6.90
2019-04-13T12:12:50.967Z,5.71
2019-04-13T12:15:46.903Z,5.00
2019-04-13T12:18:36.202Z,5.25
2019-04-13T12:21:22.085Z,5.19
2019-04-13T12:23:50.867Z,6.00
2019-04-13T12:26:17.721Z,10.05
2019-04-13T12:28:44.817Z,12.78
2019-04-13T12:31:12.493Z,13.25
2019-04-13T12:33:46.372Z,13.27
2019-04-13T12:36:13.885Z,14.70
2019-04-13T12:38:49.693Z,11.85
2019-04-13T12:41:17.853Z,11.67
2019-04-13T12:43:44.476Z,14.37
2019-04-13T12:46:12.308Z,11.92
2019-04-13T12:48:39.144Z,11.62
2019-04-13T12:51:05.917Z,10.10
2019-04-13T12:53:32.624Z,8.52
2019-04-13T12:55:59.245Z,7.36
2019-04-13T12:58:26.336Z,7.86
2019-04-13T13:00:59.311Z,7.72
2019-04-13T13:03:27.278Z,7.78
2019-04-13T13:05:55.089Z,7.72
2019-04-13T13:08:23.133Z,7.24
2019-04-13T13:10:49.701Z,6.80
2019-04-13T13:13:22.532Z,7.08
2019-04-13T13:15:49.525Z,7.18
2019-04-13T13:18:16.531Z,7.64
2019-04-13T13:20:43.206Z,9.22
2019-04-13T13:23:12.410Z,9.47
2019-04-13T13:25:38.695Z,8.53
2019-04-13T13:28:05.465Z,7.04
2019-04-13T13:30:32.384Z,6.38
2019-04-13T13:32:59.252Z,6.08
2019-04-13T13:35:26.066Z,6.18
2019-04-13T13:37:53.647Z,6.04
2019-04-13T13:40:31.278Z,6.34
2019-04-13T13:42:49.782Z,6.26
2019-04-13T13:45:16.670Z,6.25
2019-04-13T13:47:43.442Z,6.64
2019-04-13T13:50:11.472Z,6.53
2019-04-13T13:52:38.738Z,6.96
2019-04-13T13:55:08.011Z,7.01
2019-04-13T13:57:40.928Z,6.44
2019-04-13T14:00:12.121Z,6.49
2019-04-13T14:02:38.735Z,6.57
2019-04-13T14:05:05.833Z,7.31
2019-04-13T14:07:33.400Z,7.10
2019-04-13T14:10:12.383Z,6.79
2019-04-13T14:12:41.929Z,6.75
2019-04-13T14:15:11.846Z,7.20
2019-04-13T14:17:39.409Z,7.24
2019-04-13T14:20:07.126Z,6.85
2019-04-13T14:22:33.961Z,6.13
2019-04-13T14:25:00.608Z,6.08
2019-04-13T14:27:27.470Z,6.71
2019-04-13T14:29:55.011Z,7.07
2019-04-13T14:32:21.625Z,6.98
2019-04-13T14:34:50.685Z,7.38
2019-04-13T14:37:17.432Z,7.12
2019-04-13T14:39:44.436Z,6.83
2019-04-13T14:42:12.790Z,6.68
2019-04-13T14:44:39.765Z,6.76
2019-04-13T14:47:06.911Z,6.64
2019-04-13T14:49:34.481Z,6.75
2019-04-13T14:52:02.211Z,6.90
2019-04-13T14:54:28.811Z,6.61
2019-04-13T14:56:57.995Z,7.02
2019-04-13T14:59:24.727Z,7.10
2019-04-13T15:01:51.595Z,7.30
2019-04-13T15:04:18.847Z,7.30
2019-04-13T15:06:46.207Z,6.60
2019-04-13T15:09:17.314Z,6.53
2019-04-13T15:11:42.912Z,6.45
2019-04-13T15:14:10.892Z,6.38
2019-04-13T15:16:39.952Z,6.22
2019-04-13T15:19:26.213Z,6.36
2019-04-13T15:21:43.865Z,6.82
2019-04-13T15:24:13.540Z,6.94
2019-04-13T15:26:44.149Z,6.27
2019-04-13T15:29:11.148Z,5.99
2019-04-13T15:31:39.890Z,5.73
2019-04-13T15:34:07.385Z,5.56
2019-04-13T15:36:35.600Z,5.48
2019-04-13T15:39:07.259Z,5.64
2019-04-13T15:41:46.016Z,5.67
2019-04-13T15:44:06.414Z,5.68
2019-04-13T15:46:33.331Z,5.37
2019-04-13T15:49:00.527Z,5.18
2019-04-13T15:51:28.245Z,5.27
2019-04-13T15:53:57.586Z,5.30
2019-04-13T15:56:24.639Z,5.64
2019-04-13T15:58:51.567Z,5.65
2019-04-13T16:01:19.572Z,5.84
2019-04-13T16:03:46.960Z,5.12
2019-04-13T16:06:19.291Z,5.08
2019-04-13T16:09:11.879Z,4.82
2019-04-13T16:11:48.365Z,4.61
2019-04-13T16:14:09.806Z,4.81
2019-04-13T16:16:37.274Z,4.65
2019-04-13T16:19:05.060Z,4.68
2019-04-13T16:21:32.504Z,4.85
2019-04-13T16:24:00.544Z,4.94
2019-04-13T16:26:27.980Z,5.19
2019-04-13T16:29:27.268Z,5.15
2019-04-13T16:32:31.842Z,5.09
2019-04-13T16:35:20.112Z,4.63
2019-04-13T16:37:48.509Z,4.45
2019-04-13T16:40:16.303Z,4.20
2019-04-13T16:42:43.759Z,3.98
2019-04-13T16:45:23.863Z,3.83
2019-04-13T16:47:57.999Z,3.63
2019-04-13T16:50:38.891Z,3.80
2019-04-13T16:53:35.213Z,3.81
2019-04-13T16:56:06.834Z,3.80
2019-04-13T16:58:40.496Z,3.98
2019-04-13T17:01:23.725Z,4.01
2019-04-13T17:04:13.011Z,4.02
2019-04-13T17:06:39.873Z,3.91
2019-04-13T17:09:06.524Z,3.92
2019-04-13T17:11:34.765Z,3.65
2019-04-13T17:14:01.838Z,3.58
2019-04-13T17:16:29.818Z,3.53
2019-04-13T17:19:15.637Z,3.44
2019-04-13T17:21:48.062Z,3.37
2019-04-13T17:24:36.836Z,3.27
2019-04-13T17:27:23.615Z,3.24
2019-04-13T17:29:58.718Z,3.00
2019-04-13T17:32:31.829Z,3.04
2019-04-13T17:35:03.760Z,3.01
2019-04-13T17:37:30.577Z,2.94
2019-04-13T17:39:57.449Z,2.89
2019-04-13T17:42:44.947Z,2.93
2019-04-13T17:45:37.923Z,2.79
2019-04-13T17:48:25.306Z,2.78
2019-04-13T17:51:18.694Z,2.60
2019-04-13T17:54:12.500Z,2.62
2019-04-13T17:56:40.650Z,2.55
2019-04-13T17:59:21.982Z,2.50
2019-04-13T18:02:13.328Z,2.40
2019-04-13T18:05:12.962Z,2.46
2019-04-13T18:07:59.419Z,2.30
2019-04-13T18:10:45.994Z,2.32
2019-04-13T18:13:45.117Z,2.17
2019-04-13T18:16:29.989Z,2.15
2019-04-13T18:19:05.659Z,2.21
2019-04-13T18:21:32.941Z,2.06
2019-04-13T18:24:01.448Z,2.08
2019-04-13T18:26:29.236Z,1.95
2019-04-13T18:28:56.658Z,1.98
2019-04-13T18:31:25.046Z,1.80
2019-04-13T18:33:53.347Z,1.82
2019-04-13T18:36:21.359Z,1.83
2019-04-13T18:38:48.309Z,1.83
2019-04-13T18:41:16.540Z,1.74
2019-04-13T18:43:43.778Z,1.84
2019-04-13T18:46:11.311Z,1.93
2019-04-13T18:48:38.130Z,1.97
2019-04-13T18:51:06.352Z,2.05
2019-04-13T18:53:33.627Z,2.04
2019-04-13T18:56:00.389Z,2.05
2019-04-13T18:58:29.447Z,2.18
2019-04-13T19:00:57.208Z,2.10
2019-04-13T19:03:24.270Z,2.27
2019-04-13T19:05:50.919Z,2.12
2019-04-13T19:08:17.907Z,2.18
2019-04-13T19:10:44.612Z,2.23
2019-04-13T19:13:11.543Z,2.19
2019-04-13T19:15:38.486Z,2.28
2019-04-13T19:18:05.287Z,2.33
2019-04-13T19:20:32.023Z,2.27
2019-04-13T19:22:59.111Z,2.42
2019-04-13T19:25:26.196Z,2.38
2019-04-13T19:27:52.851Z,2.40
2019-04-13T19:30:19.728Z,2.44
2019-04-13T19:32:46.474Z,2.48
2019-04-13T19:35:13.540Z,2.57
2019-04-13T19:37:41.118Z,2.56
2019-04-13T19:40:08.438Z,2.49
2019-04-13T19:42:35.715Z,2.55
2019-04-13T19:45:03.260Z,2.55
2019-04-13T19:47:31.215Z,2.62
2019-04-13T19:49:57.941Z,2.62
2019-04-13T19:52:30.597Z,2.68
2019-04-13T19:54:57.204Z,2.77
2019-04-13T19:57:24.003Z,2.68
2019-04-13T19:59:51.644Z,2.70
2019-04-13T20:02:20.552Z,2.68
2019-04-13T20:04:47.426Z,2.66
2019-04-13T20:07:14.535Z,2.66
2019-04-13T20:09:41.097Z,2.68
2019-04-13T20:12:08.763Z,2.62
2019-04-13T20:14:35.356Z,2.53
2019-04-13T20:17:02.118Z,2.55
2019-04-13T20:19:28.908Z,2.47
2019-04-13T20:21:55.760Z,2.38
2019-04-13T20:24:22.988Z,2.43
2019-04-13T20:26:51.219Z,2.41
2019-04-13T20:29:18.806Z,2.47
2019-04-13T20:31:46.329Z,2.33
2019-04-13T20:34:14.172Z,2.28
2019-04-13T20:36:42.469Z,2.31
2019-04-13T20:39:11.312Z,2.26
2019-04-13T20:41:48.934Z,2.46
2019-04-13T20:44:13.220Z,2.42
2019-04-13T20:46:38.897Z,2.40
2019-04-13T20:49:08.553Z,2.37
2019-04-13T20:51:36.684Z,2.36
2019-04-13T20:54:03.425Z,2.38
2019-04-13T20:56:30.336Z,2.34
2019-04-13T20:58:57.601Z,2.40
2019-04-13T21:01:24.241Z,2.33
2019-04-13T21:03:53.454Z,2.37
2019-04-13T21:06:21.832Z,2.41
2019-04-13T21:08:51.333Z,2.35
2019-04-13T21:11:17.357Z,2.41
2019-04-13T21:13:57.448Z,2.28
2019-04-13T21:16:14.887Z,2.28
2019-04-13T21:18:42.836Z,2.29
2019-04-13T21:21:10.678Z,2.26
2019-04-13T21:23:38.457Z,2.23
2019-04-13T21:26:06.279Z,2.24
2019-04-13T21:28:34.309Z,2.24
2019-04-13T21:31:02.150Z,2.31
2019-04-13T21:33:30.001Z,2.22
2019-04-13T21:35:57.767Z,2.15
2019-04-13T21:38:25.650Z,2.19
2019-04-13T21:40:53.596Z,2.01
2019-04-13T21:43:21.480Z,1.97
2019-04-13T21:45:49.270Z,1.97
2019-04-13T21:48:15.812Z,1.92
2019-04-13T21:50:57.103Z,1.89
2019-04-13T21:53:33.362Z,1.93
2019-04-13T21:55:59.992Z,1.84
2019-04-13T21:58:27.232Z,1.93
2019-04-13T22:01:30.011Z,1.77
2019-04-13T22:03:58.504Z,1.83
2019-04-13T22:06:25.680Z,1.86
2019-04-13T22:08:53.418Z,1.80
2019-04-13T22:11:21.203Z,1.69
2019-04-13T22:13:48.977Z,1.66
2019-04-13T22:16:16.902Z,1.68
2019-04-13T22:18:43.830Z,1.57
2019-04-13T22:21:11.161Z,1.61
2019-04-13T22:23:38.852Z,1.59
2019-04-13T22:26:06.784Z,1.60
2019-04-13T22:28:38.881Z,1.62
2019-04-13T22:31:31.110Z,1.66
2019-04-13T22:33:59.020Z,1.70
2019-04-13T22:36:29.248Z,1.56
2019-04-13T22:38:56.977Z,1.43
2019-04-13T22:41:24.513Z,1.56
2019-04-13T22:43:53.081Z,1.52
2019-04-13T22:46:19.895Z,1.59
2019-04-13T22:48:57.071Z,1.55
2019-04-13T22:51:36.279Z,1.44
2019-04-13T22:54:25.881Z,1.43
2019-04-13T22:57:19.479Z,1.46
2019-04-13T22:59:46.516Z,1.45
2019-04-13T23:02:34.230Z,1.25
2019-04-13T23:05:00.945Z,1.16
2019-04-13T23:07:28.294Z,1.03
2019-04-13T23:09:56.306Z,1.07
2019-04-13T23:12:22.924Z,1.00
2019-04-13T23:14:56.745Z,0.80
2019-04-13T23:17:18.093Z,0.93
2019-04-13T23:19:45.719Z,0.99
2019-04-13T23:22:12.548Z,0.91
2019-04-13T23:24:39.471Z,0.98
2019-04-13T23:27:07.252Z,1.09
2019-04-13T23:29:34.626Z,1.01
2019-04-13T23:32:01.586Z,1.03
2019-04-13T23:34:28.940Z,1.19
2019-04-13T23:36:55.733Z,1.17
2019-04-13T23:39:23.475Z,1.08
2019-04-13T23:41:51.841Z,1.05
2019-04-13T23:44:20.205Z,1.15
2019-04-13T23:46:48.275Z,1.18
2019-04-13T23:49:15.125Z,1.16
2019-04-13T23:51:42.522Z,1.11
2019-04-13T23:54:10.689Z,1.12
2019-04-13T23:56:56.361Z,1.03
2019-04-13T23:59:28.653Z,1.07
